West Ossipee, New Hampshire
Current Conditions -  °F | °C
As of 10:35 PM on Friday 28 Nov 2014 (Local Time) from KLCI Reporting Station
Few Clouds Few Clouds  
Wind Chill: -13°   Ceiling: Unl
Heat Index: -8°   Visibility: 10mi
Dew Point: -11°   Wind: 6mph
Humidity: 79%   Direction: 260°W
Pressure: 30.13"   Gusts: NA
Location:  43.82°N, 71.21°W
Report Text: KLCI 290335Z AUTO 26005KT 10SM FEW037 M08/M11 A3013 RMK AO1
Loading
Personal Weather Stations






























Interactive Weather Map New forecast layout! Learn more

10-Day Weather Forecast

Advertisements
Track Severe Weather on mobile